Time;durP1;ratioP1;P1;durP2;ratioP2;P2;SDS_P1;SDS_P2;PMS_P1;PMS_P2;Temp;Humidity;BMP_temperature;BMP_pressure;BME280_temperature;BME280_humidity;BME280_pressure;Samples;Min_cycle;Max_cycle;Signal;HPM_P1;HPM_P2
2022/07/01 00:00:11;;;;;;;;;1.00;1.00;;;;;18.05;56.39;101176.44;4977966;28;45436;-66
2022/07/01 00:02:36;;;;;;;;;1.00;1.00;;;;;18.14;56.49;101202.25;4977885;28;45427;-66
2022/07/01 00:05:02;;;;;;;;;1.00;1.00;;;;;18.08;56.85;101194.91;4978031;28;45418;-66
2022/07/01 00:07:27;;;;;;;;;1.00;1.00;;;;;18.08;57.14;101204.84;4977524;28;46144;-67
2022/07/01 00:09:53;;;;;;;;;1.00;1.00;;;;;17.79;57.14;101167.91;4992601;28;45268;-66
2022/07/01 00:12:18;;;;;;;;;0.00;0.00;;;;;17.96;57.26;101204.44;4978010;28;45770;-66
2022/07/01 00:14:44;;;;;;;;;0.00;0.00;;;;;17.85;57.26;101200.34;4977784;28;45507;-66
2022/07/01 00:17:09;;;;;;;;;1.00;0.00;;;;;17.46;57.59;101143.13;4977323;28;46411;-64
2022/07/01 00:19:35;;;;;;;;;0.67;0.67;;;;;17.89;57.77;101220.47;4975958;28;46370;-65
2022/07/01 00:22:00;;;;;;;;;0.00;0.00;;;;;17.89;57.78;101223.16;4977504;28;45507;-66
2022/07/01 00:24:26;;;;;;;;;1.00;1.00;;;;;17.81;57.77;101220.50;4977710;28;45240;-65
2022/07/01 00:26:52;;;;;;;;;2.00;0.67;;;;;17.75;57.85;101220.41;4975958;28;45703;-66
2022/07/01 00:29:18;;;;;;;;;1.00;1.00;;;;;17.71;57.89;101219.94;4977242;28;45898;-67
2022/07/01 00:31:43;;;;;;;;;0.00;0.00;;;;;17.25;57.95;101151.84;4977353;28;45360;-66
2022/07/01 00:34:08;;;;;;;;;0.00;0.00;;;;;17.64;58.11;101221.63;4977602;28;45415;-65
2022/07/01 00:36:34;;;;;;;;;1.33;0.67;;;;;17.56;58.29;101227.06;4977184;28;45787;-65
2022/07/01 00:38:59;;;;;;;;;0.67;0.67;;;;;17.53;58.25;101232.78;4977008;28;45535;-66
2022/07/01 00:41:24;;;;;;;;;1.00;1.00;;;;;17.45;58.47;101222.94;4977609;28;45467;-65
2022/07/01 00:43:50;;;;;;;;;0.00;0.00;;;;;17.39;58.22;101217.41;4977474;28;45304;-67
2022/07/01 00:46:16;;;;;;;;;2.00;2.00;;;;;17.20;58.39;101195.31;4976933;28;46360;-65
2022/07/01 00:48:43;;;;;;;;;1.00;1.00;;;;;17.27;58.67;101214.28;4977050;28;45487;-66
2022/07/01 00:51:08;;;;;;;;;1.00;1.00;;;;;17.38;58.58;101229.16;4975834;28;45376;-67
2022/07/01 00:53:34;;;;;;;;;1.00;1.00;;;;;17.24;58.93;101207.44;4977603;28;46355;-66
2022/07/01 00:55:59;;;;;;;;;1.33;1.33;;;;;17.33;58.93;101230.53;4976916;28;45868;-64
2022/07/01 00:58:29;;;;;;;;;2.33;1.00;;;;;16.72;58.95;101132.78;4975782;28;46027;-65
2022/07/01 01:00:56;;;;;;;;;1.00;1.00;;;;;17.33;59.17;101235.91;4978812;28;45422;-66
2022/07/01 01:03:21;;;;;;;;;0.00;0.00;;;;;17.29;59.08;101234.59;4980806;28;45560;-65
2022/07/01 01:05:48;;;;;;;;;4.00;1.00;;;;;16.96;59.48;101182.03;4980105;28;46556;-66
2022/07/01 01:08:15;;;;;;;;;0.00;0.00;;;;;17.28;59.35;101234.78;4980444;28;45412;-66
2022/07/01 01:10:40;;;;;;;;;1.00;1.00;;;;;17.32;59.38;101241.47;4980242;28;45324;-65
2022/07/01 01:13:07;;;;;;;;;1.00;1.00;;;;;17.33;59.53;101254.72;4980542;28;45492;-65
2022/07/01 01:15:33;;;;;;;;;1.00;1.00;;;;;17.27;59.33;101236.63;4980452;28;46090;-66
2022/07/01 01:17:58;;;;;;;;;1.00;1.00;;;;;16.96;59.29;101190.91;4979108;28;45417;-66
2022/07/01 01:20:23;;;;;;;;;1.00;1.00;;;;;17.27;59.42;101239.31;4980304;28;45514;-67
2022/07/01 01:22:49;;;;;;;;;2.00;2.00;;;;;17.12;59.63;101224.94;4980553;28;45637;-66
2022/07/01 01:25:16;;;;;;;;;2.33;2.33;;;;;17.35;59.68;101270.69;4980015;28;46818;-67
2022/07/01 01:27:41;;;;;;;;;6.00;4.67;;;;;17.36;59.69;101258.06;4980382;28;45542;-65
2022/07/01 01:30:09;;;;;;;;;1.00;1.00;;;;;17.28;59.55;101259.81;4980282;28;45309;-66
2022/07/01 01:32:35;;;;;;;;;1.00;1.00;;;;;17.19;59.52;101244.72;4995886;28;45305;-66
2022/07/01 01:35:01;;;;;;;;;2.00;1.00;;;;;17.31;59.97;101270.19;4979554;28;46444;-66
2022/07/01 01:37:29;;;;;;;;;1.00;1.00;;;;;17.30;59.64;101260.47;4979924;28;45331;-66
2022/07/01 01:39:55;;;;;;;;;0.67;0.67;;;;;17.19;59.80;101257.31;4980023;28;45336;-65
2022/07/01 01:42:21;;;;;;;;;0.00;0.00;;;;;17.23;59.85;101264.03;4995145;28;45450;-65
2022/07/01 01:44:47;;;;;;;;;1.00;1.00;;;;;17.10;59.96;101250.31;4979722;28;46751;-65
2022/07/01 01:47:12;;;;;;;;;1.33;1.33;;;;;17.24;60.15;101274.59;4979494;28;45498;-65
2022/07/01 01:49:37;;;;;;;;;2.67;2.00;;;;;17.22;60.07;101268.56;4979498;28;45427;-65
2022/07/01 01:52:03;;;;;;;;;0.67;0.67;;;;;17.01;60.16;101228.84;4979887;28;45341;-65
2022/07/01 01:54:29;;;;;;;;;0.00;0.00;;;;;17.15;60.16;101251.44;4979485;28;46464;-66
2022/07/01 01:56:54;;;;;;;;;0.67;0.67;;;;;17.16;60.29;101266.56;4979727;28;45380;-66
2022/07/01 01:59:19;;;;;;;;;2.00;0.67;;;;;17.12;60.42;101261.72;4979883;28;45365;-66
2022/07/01 02:01:45;;;;;;;;;0.00;0.00;;;;;16.86;60.41;101224.38;4979759;28;45775;-65
2022/07/01 02:04:10;;;;;;;;;1.33;1.00;;;;;17.19;60.23;101273.44;4979303;28;46621;-66
2022/07/01 02:06:36;;;;;;;;;1.00;0.00;;;;;17.07;60.43;101258.72;4979380;28;45435;-65
2022/07/01 02:09:02;;;;;;;;;1.00;1.00;;;;;17.20;60.60;101275.94;4979341;28;45291;-66
2022/07/01 02:11:27;;;;;;;;;1.00;1.00;;;;;16.75;60.33;101206.78;4978619;28;45618;-64
2022/07/01 02:13:53;;;;;;;;;1.33;1.33;;;;;17.10;60.25;101259.19;4979431;28;46398;-66
2022/07/01 02:16:18;;;;;;;;;2.00;1.00;;;;;17.19;60.23;101279.63;4979025;28;45455;-65
2022/07/01 02:18:44;;;;;;;;;1.00;1.00;;;;;16.77;60.03;101209.28;4979416;28;45484;-65
2022/07/01 02:21:09;;;;;;;;;1.00;1.00;;;;;17.13;59.84;101269.59;4979266;28;45554;-65
2022/07/01 02:23:34;;;;;;;;;1.00;1.00;;;;;17.25;60.05;101289.72;4979229;28;45598;-65
2022/07/01 02:26:00;;;;;;;;;4.00;0.67;;;;;17.20;60.03;101292.06;4979063;28;45498;-65
2022/07/01 02:28:25;;;;;;;;;0.00;0.00;;;;;17.17;60.32;101292.41;4979303;28;45321;-66
2022/07/01 02:30:50;;;;;;;;;1.33;1.00;;;;;17.16;60.13;101290.75;4979346;28;45448;-65
2022/07/01 02:33:16;;;;;;;;;0.00;0.00;;;;;17.15;60.38;101293.59;4978842;28;45727;-65
2022/07/01 02:35:41;;;;;;;;;2.33;1.00;;;;;17.10;60.17;101285.22;4978991;28;45493;-65
2022/07/01 02:38:07;;;;;;;;;0.00;0.00;;;;;17.15;60.54;101302.50;4979128;28;45246;-65
2022/07/01 02:40:37;;;;;;;;;0.00;0.00;;;;;17.17;60.70;101296.94;4979219;28;45402;-65
2022/07/01 02:43:03;;;;;;;;;1.67;0.00;;;;;17.05;60.03;101277.69;4977441;28;47471;-65
2022/07/01 02:45:28;;;;;;;;;0.00;0.00;;;;;17.19;60.20;101301.13;4978869;28;45369;-66
2022/07/01 02:47:53;;;;;;;;;1.33;1.00;;;;;17.19;59.99;101303.00;4977494;28;45430;-66
2022/07/01 02:50:19;;;;;;;;;1.33;1.33;;;;;17.11;60.25;101287.75;4978950;28;45291;-66
2022/07/01 02:52:45;;;;;;;;;0.00;0.00;;;;;16.89;60.23;101256.25;4978554;28;47273;-66
2022/07/01 02:55:13;;;;;;;;;0.33;0.33;;;;;17.20;60.02;101312.72;4978336;28;45455;-65
2022/07/01 02:57:40;;;;;;;;;2.00;1.00;;;;;17.22;60.23;101314.25;4978672;28;45482;-64
2022/07/01 03:00:07;;;;;;;;;1.00;1.00;;;;;17.10;59.68;101290.59;4978711;28;45500;-65
2022/07/01 03:02:33;;;;;;;;;1.00;1.00;;;;;16.99;60.22;101281.06;4978320;28;45565;-65
2022/07/01 03:05:00;;;;;;;;;5.33;4.00;;;;;15.54;59.85;101042.34;4978249;28;45372;-65
2022/07/01 03:07:25;;;;;;;;;1.33;1.33;;;;;17.17;59.81;101310.38;4977104;28;45509;-65
2022/07/01 03:09:51;;;;;;;;;1.67;1.00;;;;;17.09;60.06;101303.19;4978543;28;45347;-65
2022/07/01 03:12:29;;;;;;;;;1.00;1.00;;;;;17.18;59.95;101315.59;4978128;28;45654;-66
2022/07/01 03:14:58;;;;;;;;;1.00;0.00;;;;;17.01;59.48;101287.94;4978591;28;45322;-65
2022/07/01 03:17:24;;;;;;;;;2.00;0.33;;;;;17.16;59.07;101296.13;4978635;28;45554;-66
2022/07/01 03:19:54;;;;;;;;;1.67;1.67;;;;;16.18;58.75;101147.84;4978429;28;45663;-66
2022/07/01 03:22:20;;;;;;;;;2.00;2.00;;;;;16.99;58.85;101289.13;4977788;28;46590;-64
2022/07/01 03:24:49;;;;;;;;;1.00;1.00;;;;;16.17;58.59;101153.38;4978091;28;45530;-64
2022/07/01 03:27:16;;;;;;;;;1.00;1.00;;;;;16.96;58.58;101282.25;4978035;28;45522;-65
2022/07/01 03:29:41;;;;;;;;;1.00;1.00;;;;;17.04;58.80;101305.56;4978147;28;45435;-64
2022/07/01 03:32:09;;;;;;;;;1.00;1.00;;;;;17.12;58.45;101324.34;4977527;28;45360;-65
2022/07/01 03:34:36;;;;;;;;;1.00;1.00;;;;;17.10;58.71;101334.44;4977665;28;45276;-65
2022/07/01 03:37:01;;;;;;;;;1.67;1.67;;;;;16.97;58.66;101310.78;4977791;28;45323;-65
2022/07/01 03:39:26;;;;;;;;;2.00;2.00;;;;;17.07;58.47;101332.09;4977656;28;46100;-66
2022/07/01 03:41:52;;;;;;;;;1.33;1.00;;;;;17.05;58.44;101339.50;4977930;28;45569;-66
2022/07/01 03:44:17;;;;;;;;;1.00;1.00;;;;;15.86;58.63;101138.03;4977809;28;45451;-66
2022/07/01 03:46:42;;;;;;;;;1.00;1.00;;;;;17.06;58.37;101351.91;4977870;28;45789;-66
2022/07/01 03:49:08;;;;;;;;;3.00;1.33;;;;;17.04;58.79;101345.88;4977930;28;45241;-66
2022/07/01 03:51:34;;;;;;;;;1.00;1.00;;;;;17.02;58.55;101339.84;4977637;28;45403;-65
2022/07/01 03:56:43;;;;;;;;;1.00;1.00;;;;;16.41;58.54;101247.25;4977909;28;45308;-66
2022/07/01 03:59:08;;;;;;;;;1.33;1.33;;;;;16.99;58.70;101345.53;4977825;28;45562;-66
2022/07/01 04:01:34;;;;;;;;;3.00;2.33;;;;;17.00;58.80;101344.50;4977029;28;46714;-66
2022/07/01 04:03:59;;;;;;;;;3.67;3.33;;;;;17.00;58.60;101350.72;4977344;28;45294;-65
2022/07/01 04:06:25;;;;;;;;;2.00;2.00;;;;;16.92;58.86;101336.47;4977764;28;45426;-65
2022/07/01 04:08:50;;;;;;;;;2.67;2.67;;;;;16.49;59.09;101271.41;4977697;28;45677;-65
2022/07/01 04:11:16;;;;;;;;;3.00;2.00;;;;;16.88;59.12;101340.53;4977198;28;46057;-65
2022/07/01 04:13:46;;;;;;;;;4.00;4.00;;;;;16.97;59.17;101382.47;4977797;28;45414;-65
2022/07/01 04:16:12;;;;;;;;;3.00;3.00;;;;;16.97;59.31;101360.97;4977681;28;45258;-66
2022/07/01 04:18:38;;;;;;;;;3.00;3.00;;;;;16.97;59.24;101360.97;4977610;28;45281;-65
2022/07/01 04:23:47;;;;;;;;;1.00;1.00;;;;;16.97;59.12;101360.97;4977728;28;45226;-66
2022/07/01 04:26:13;;;;;;;;;2.00;2.00;;;;;16.97;59.37;101366.34;4977592;28;45874;-65
2022/07/01 04:28:38;;;;;;;;;1.00;1.00;;;;;16.93;59.30;101370.41;4978141;28;45469;-66
2022/07/01 04:31:03;;;;;;;;;1.00;1.00;;;;;16.91;59.66;101367.03;4977038;28;46098;-66
2022/07/01 04:33:29;;;;;;;;;7.00;2.67;;;;;16.54;59.57;101301.25;4977030;28;45292;-66
2022/07/01 04:35:54;;;;;;;;;9.00;8.67;;;;;16.93;60.22;101375.75;4978798;28;45399;-66
2022/07/01 04:38:19;;;;;;;;;3.67;3.00;;;;;16.81;59.63;101361.84;4981463;28;45520;-67
2022/07/01 04:41:58;;;;;;;;;2.00;2.00;;;;;16.85;60.46;101357.81;4980343;28;45956;-65
2022/07/01 04:43:30;;;;;;;;;2.00;2.00;;;;;16.85;60.02;101357.00;4980261;28;45534;-64
2022/07/01 04:45:55;;;;;;;;;3.00;2.00;;;;;16.92;59.95;101366.03;4995747;28;45868;-65
2022/07/01 04:48:21;;;;;;;;;2.00;2.00;;;;;16.86;60.30;101359.50;4980811;28;45293;-65
2022/07/01 04:50:46;;;;;;;;;2.00;2.00;;;;;16.40;60.15;101285.84;4978841;28;47307;-65
2022/07/01 04:53:13;;;;;;;;;2.00;2.00;;;;;16.98;60.20;101384.97;4980538;28;45412;-65
2022/07/01 04:55:39;;;;;;;;;3.00;3.00;;;;;16.96;60.45;101378.09;4980026;28;45287;-67
2022/07/01 04:58:06;;;;;;;;;2.67;2.67;;;;;16.22;59.83;101252.97;4980381;28;45505;-63
2022/07/01 05:00:32;;;;;;;;;3.33;3.33;;;;;16.89;60.07;101361.00;4995585;28;47698;-66
2022/07/01 05:02:57;;;;;;;;;1.33;1.33;;;;;17.02;59.60;101390.88;4980855;28;45494;-65
2022/07/01 05:05:23;;;;;;;;;5.00;3.00;;;;;16.75;59.44;101340.19;5012220;28;45257;-66
2022/07/01 05:07:48;;;;;;;;;2.33;1.00;;;;;16.98;59.49;101384.16;4980505;28;45276;-66
2022/07/01 05:10:14;;;;;;;;;3.33;3.33;;;;;17.05;59.23;101398.59;4980058;28;45442;-65
2022/07/01 05:12:39;;;;;;;;;2.33;2.33;;;;;17.04;59.50;101394.22;4980027;28;45448;-65
2022/07/01 05:15:06;;;;;;;;;5.00;3.33;;;;;17.05;58.92;101389.69;4980832;28;45591;-64
2022/07/01 05:23:00;;;;;;;;;1.00;1.00;;;;;16.45;58.26;101312.19;4979686;28;45391;-64
2022/07/01 05:25:25;;;;;;;;;1.00;1.00;;;;;17.02;58.31;101412.38;4980052;28;45336;-66
2022/07/01 05:27:50;;;;;;;;;2.00;2.00;;;;;16.92;58.31;101390.19;4980077;28;45433;-66
2022/07/01 05:30:16;;;;;;;;;1.67;1.67;;;;;17.05;58.64;101398.59;4979381;28;45599;-65
2022/07/01 05:32:41;;;;;;;;;4.00;4.00;;;;;17.06;58.43;101402.97;4979369;28;45555;-65
2022/07/01 05:35:07;;;;;;;;;2.00;1.00;;;;;17.05;58.13;101401.28;4979398;28;45319;-65
2022/07/01 05:37:32;;;;;;;;;3.67;3.00;;;;;16.63;57.98;101327.09;4979650;28;45446;-66
2022/07/01 05:39:57;;;;;;;;;2.67;2.67;;;;;17.01;58.03;101390.00;4978718;28;46425;-66
2022/07/01 05:42:22;;;;;;;;;1.67;1.67;;;;;17.11;57.78;101405.97;4979191;28;45375;-66
2022/07/01 05:44:48;;;;;;;;;3.33;2.00;;;;;17.13;58.11;101401.25;5011488;28;45366;-65
2022/07/01 05:47:13;;;;;;;;;1.67;1.33;;;;;17.16;57.22;101405.44;4978728;28;45567;-65
2022/07/01 05:49:39;;;;;;;;;2.67;2.00;;;;;17.17;57.19;101409.81;5011081;28;45587;-66
2022/07/01 05:52:04;;;;;;;;;1.33;1.33;;;;;17.22;57.20;101407.44;4979226;28;45323;-65
2022/07/01 05:54:30;;;;;;;;;1.33;1.33;;;;;17.42;56.85;101418.66;4977708;28;45418;-66
2022/07/01 05:56:55;;;;;;;;;1.00;1.00;;;;;17.68;55.92;101421.13;4979652;28;45499;-65
2022/07/01 05:59:20;;;;;;;;;1.33;0.67;;;;;17.91;55.35;101414.81;4977506;28;46358;-65
2022/07/01 06:01:47;;;;;;;;;1.00;1.00;;;;;18.00;55.15;101404.00;4979382;28;45214;-66
2022/07/01 06:04:12;;;;;;;;;19.00;19.00;;;;;18.21;54.64;101414.97;4979296;28;45475;-67
2022/07/01 06:06:37;;;;;;;;;1.00;1.00;;;;;18.25;53.84;101378.63;4979412;28;45229;-66
2022/07/01 06:09:03;;;;;;;;;1.00;1.00;;;;;18.77;53.48;101411.06;4979296;28;46649;-67
2022/07/01 06:11:28;;;;;;;;;0.33;0.33;;;;;19.12;52.12;101419.50;4979406;28;45305;-66
2022/07/01 06:13:54;;;;;;;;;9.33;8.00;;;;;19.36;51.75;101394.16;4979287;28;45404;-65
2022/07/01 06:16:19;;;;;;;;;0.00;0.00;;;;;19.77;49.95;101402.63;4978935;28;45383;-66
2022/07/01 06:18:45;;;;;;;;;0.00;0.00;;;;;20.26;49.39;101413.59;4978702;28;45680;-66
2022/07/01 06:21:11;;;;;;;;;0.67;0.67;;;;;20.63;48.55;101417.97;4978560;28;45394;-69
2022/07/01 06:23:37;;;;;;;;;5.33;3.00;;;;;21.01;47.08;101422.22;4978644;28;45771;-66
2022/07/01 06:26:03;;;;;;;;;3.00;3.00;;;;;21.30;45.94;101419.34;4977128;28;45420;-66
2022/07/01 06:28:29;;;;;;;;;1.33;0.67;;;;;21.54;46.07;101421.59;4977034;28;45780;-66
2022/07/01 06:30:55;;;;;;;;;0.00;0.00;;;;;21.82;45.54;101415.25;4976414;28;45570;-65
2022/07/01 06:33:21;;;;;;;;;1.00;1.00;;;;;21.75;45.01;101362.97;4975503;28;45407;-65
2022/07/01 06:35:46;;;;;;;;;3.00;3.00;;;;;22.35;44.32;101421.72;4976976;28;45382;-66
2022/07/01 06:38:11;;;;;;;;;1.67;1.67;;;;;22.34;43.43;101378.59;4976481;28;46005;-66
2022/07/01 06:40:37;;;;;;;;;0.00;0.00;;;;;22.86;42.39;101431.22;4977682;28;45320;-66
2022/07/01 06:43:02;;;;;;;;;1.00;1.00;;;;;23.02;42.47;101417.22;4978252;28;45415;-66
2022/07/01 06:45:28;;;;;;;;;1.67;1.67;;;;;23.01;41.80;101400.13;4978533;28;45241;-67
2022/07/01 06:47:53;;;;;;;;;2.00;1.00;;;;;23.03;40.28;101380.94;4978222;28;45557;-67
2022/07/01 06:50:18;;;;;;;;;2.67;1.33;;;;;23.46;40.29;101426.56;4993196;28;45737;-66
2022/07/01 06:52:44;;;;;;;;;1.00;1.00;;;;;23.58;40.71;101420.28;4978559;28;45477;-66
2022/07/01 06:55:09;;;;;;;;;2.00;2.00;;;;;23.71;39.85;101411.28;4978189;28;45354;-67
2022/07/01 06:57:35;;;;;;;;;1.00;1.00;;;;;23.88;39.52;101436.09;5008940;28;45676;-66
2022/07/01 07:00:00;;;;;;;;;1.00;1.00;;;;;24.01;39.37;101440.59;4976807;28;46163;-66
2022/07/01 07:02:25;;;;;;;;;1.00;1.00;;;;;24.18;39.91;101436.34;4976746;28;45315;-69
2022/07/01 07:04:56;;;;;;;;;3.00;2.00;;;;;24.38;39.41;101439.00;4975044;28;45634;-65
2022/07/01 07:07:22;;;;;;;;;2.00;2.00;;;;;24.50;38.70;101448.97;4976305;28;48386;-66
2022/07/01 07:09:47;;;;;;;;;1.00;1.00;;;;;24.71;38.22;101445.06;4977835;28;45478;-65
2022/07/01 07:12:13;;;;;;;;;0.33;0.33;;;;;24.78;37.06;101440.38;4978115;28;45324;-66
2022/07/01 07:14:38;;;;;;;;;2.00;2.00;;;;;24.79;37.00;101433.91;4976626;28;45318;-67
2022/07/01 07:17:04;;;;;;;;;0.67;0.33;;;;;25.01;37.04;101433.53;4977894;28;45398;-67
2022/07/01 07:19:29;;;;;;;;;0.33;0.00;;;;;25.01;36.12;101426.22;4976486;28;45498;-67
2022/07/01 07:21:56;;;;;;;;;0.67;0.33;;;;;24.95;36.57;101405.31;4976447;28;45348;-67
2022/07/01 07:24:21;;;;;;;;;3.00;2.00;;;;;25.15;36.56;101438.66;4977805;28;45356;-66
2022/07/01 07:26:47;;;;;;;;;0.67;0.00;;;;;25.04;36.25;101390.41;4976154;28;47834;-67
2022/07/01 07:29:13;;;;;;;;;2.67;2.67;;;;;25.37;36.35;101432.78;4977479;28;45274;-66
2022/07/01 07:31:38;;;;;;;;;1.00;1.00;;;;;25.42;35.63;101416.59;4977415;28;45537;-66
2022/07/01 07:34:04;;;;;;;;;0.00;0.00;;;;;25.35;34.68;101392.19;4977859;28;45409;-67
2022/07/01 07:36:29;;;;;;;;;1.00;1.00;;;;;25.72;34.67;101425.72;4977568;28;45677;-67
2022/07/01 07:38:54;;;;;;;;;2.33;2.33;;;;;25.60;33.93;101388.56;4977640;28;45490;-66
2022/07/01 07:41:19;;;;;;;;;0.67;0.67;;;;;25.91;32.29;101421.09;4977548;28;45364;-65
2022/07/01 07:43:45;;;;;;;;;1.00;1.00;;;;;25.94;32.85;101428.81;4977825;28;45342;-67
2022/07/01 07:46:11;;;;;;;;;2.00;1.00;;;;;26.00;32.89;101413.44;4977441;28;46268;-67
2022/07/01 07:48:36;;;;;;;;;4.00;4.00;;;;;26.20;32.82;101424.06;4977679;28;45269;-66
2022/07/01 07:51:02;;;;;;;;;4.33;3.33;;;;;26.42;32.86;101440.78;4977611;28;45530;-67
2022/07/01 07:53:27;;;;;;;;;13.33;12.33;;;;;26.28;32.21;101391.06;4976493;28;45312;-67
2022/07/01 07:55:53;;;;;;;;;1.00;1.00;;;;;26.37;31.68;101379.59;4975726;28;46383;-67
2022/07/01 07:58:18;;;;;;;;;0.00;0.00;;;;;26.65;32.24;101405.41;4976268;28;45559;-74
2022/07/01 08:00:43;;;;;;;;;2.00;1.00;;;;;26.53;31.02;101374.53;4976632;28;45272;-67
2022/07/01 08:03:09;;;;;;;;;6.00;5.33;;;;;27.06;30.77;101439.19;4977595;28;45491;-67
2022/07/01 08:05:34;;;;;;;;;2.00;2.00;;;;;26.97;31.82;101401.28;4977359;28;45625;-67
2022/07/01 08:07:59;;;;;;;;;1.00;1.00;;;;;27.25;30.64;101440.72;4974070;28;45471;-66
2022/07/01 08:10:25;;;;;;;;;1.00;1.00;;;;;27.43;29.67;101428.81;4976463;28;45484;-66
2022/07/01 08:12:50;;;;;;;;;0.00;0.00;;;;;27.62;30.21;101429.50;4977551;28;45563;-67
2022/07/01 08:15:16;;;;;;;;;1.33;0.33;;;;;27.55;29.49;101389.50;4976670;28;46838;-67
2022/07/01 08:17:42;;;;;;;;;0.00;0.00;;;;;27.98;28.46;101433.84;4977003;28;45419;-65
2022/07/01 08:20:08;;;;;;;;;1.00;1.00;;;;;28.11;28.61;101439.06;4976209;28;45356;-66
2022/07/01 08:22:33;;;;;;;;;0.00;0.00;;;;;28.05;28.54;101408.06;4975081;28;45548;-67
2022/07/01 08:24:59;;;;;;;;;2.67;0.00;;;;;28.47;27.35;101437.84;4974779;28;46939;-66
2022/07/01 08:27:24;;;;;;;;;0.67;0.67;;;;;28.62;27.84;101435.38;4974575;28;45278;-66
2022/07/01 08:29:50;;;;;;;;;0.00;0.00;;;;;28.83;28.08;101441.19;4975445;28;45610;-68
2022/07/01 08:32:16;;;;;;;;;1.00;1.00;;;;;29.13;27.28;101449.94;4976029;28;45373;-67
2022/07/01 08:34:41;;;;;;;;;0.00;0.00;;;;;29.37;26.72;101429.47;4975479;28;47537;-67
2022/07/01 08:37:06;;;;;;;;;1.00;1.00;;;;;29.58;26.24;101447.06;4975548;28;45498;-67
2022/07/01 08:39:32;;;;;;;;;2.00;2.00;;;;;29.92;25.94;101445.03;4976929;28;45407;-67
2022/07/01 08:41:58;;;;;;;;;0.33;0.33;;;;;30.11;25.24;101448.31;4977062;28;45375;-66
2022/07/01 08:44:26;;;;;;;;;0.00;0.00;;;;;30.14;25.06;101438.75;4976785;28;46182;-66
2022/07/01 08:46:51;;;;;;;;;0.67;0.67;;;;;30.52;24.57;101449.56;4975231;28;45538;-66
2022/07/01 08:49:17;;;;;;;;;2.00;2.00;;;;;30.85;23.72;101453.19;4976822;28;45372;-67
2022/07/01 08:51:43;;;;;;;;;1.67;1.67;;;;;31.05;23.67;101439.63;4977005;28;45415;-66
2022/07/01 08:54:08;;;;;;;;;2.00;0.67;;;;;31.31;23.18;101453.56;4975560;28;47356;-67
2022/07/01 08:56:44;;;;;;;;;2.00;2.00;;;;;31.29;23.24;101411.78;4976477;28;45317;-67
2022/07/01 08:59:12;;;;;;;;;0.33;0.33;;;;;31.36;23.02;101390.38;4976581;28;45436;-66
2022/07/01 09:01:38;;;;;;;;;0.67;0.67;;;;;31.96;22.43;101474.25;4976822;28;45246;-67
2022/07/01 09:04:16;;;;;;;;;0.00;0.00;;;;;32.10;21.82;101458.91;4976538;28;46619;-67
2022/07/01 09:06:42;;;;;;;;;0.67;0.67;;;;;32.29;21.78;101453.78;4976542;28;45454;-66
2022/07/01 09:09:16;;;;;;;;;1.00;1.00;;;;;32.68;21.86;101468.69;4976422;28;45753;-66
2022/07/01 09:11:53;;;;;;;;;1.00;1.00;;;;;32.92;21.48;101444.22;4976340;28;45889;-68
2022/07/01 09:14:21;;;;;;;;;0.00;0.00;;;;;33.39;21.39;101475.31;4974519;28;48456;-70
2022/07/01 09:16:48;;;;;;;;;2.67;2.00;;;;;33.79;20.78;101457.81;4976041;28;45441;-67
2022/07/01 09:19:16;;;;;;;;;0.00;0.00;;;;;34.08;20.83;101450.56;4976277;28;45455;-67
2022/07/01 09:21:42;;;;;;;;;0.67;0.67;;;;;34.50;20.17;101442.88;4979071;28;45309;-67
2022/07/01 09:24:27;;;;;;;;;2.00;0.00;;;;;34.74;20.51;101475.00;4979224;28;45971;-67
2022/07/01 09:26:52;;;;;;;;;1.00;1.00;;;;;35.04;20.11;101473.94;4978407;28;45533;-68
2022/07/01 09:29:18;;;;;;;;;3.00;2.33;;;;;35.40;19.20;101470.00;4979791;28;45511;-67
2022/07/01 09:31:49;;;;;;;;;0.00;0.00;;;;;34.97;18.92;101423.69;4979541;28;45451;-67
2022/07/01 09:34:15;;;;;;;;;1.00;1.00;;;;;35.15;19.22;101462.78;4979390;28;46500;-68
2022/07/01 09:36:40;;;;;;;;;0.67;0.00;;;;;35.12;19.11;101461.44;4979237;28;45548;-67
2022/07/01 09:39:06;;;;;;;;;0.00;0.00;;;;;34.43;19.33;101430.19;4979434;28;45543;-68
2022/07/01 09:41:38;;;;;;;;;0.00;0.00;;;;;33.54;20.52;101444.97;4979753;28;45287;-67
2022/07/01 09:44:05;;;;;;;;;1.00;1.00;;;;;33.75;20.53;101474.13;4979080;28;45693;-67
2022/07/01 09:46:31;;;;;;;;;0.33;0.33;;;;;34.00;19.96;101472.38;4958125;28;45493;-69
2022/07/01 09:48:56;;;;;;;;;1.33;1.33;;;;;34.52;19.23;101433.19;4974688;28;45482;-68
2022/07/01 09:51:21;;;;;;;;;0.00;0.00;;;;;34.80;19.24;101444.56;4960184;28;45444;-67
2022/07/01 09:53:47;;;;;;;;;1.00;1.00;;;;;34.35;20.26;101480.50;4959557;28;45351;-67
2022/07/01 09:56:12;;;;;;;;;1.67;1.67;;;;;33.86;20.01;101469.44;4958312;28;45386;-68
2022/07/01 09:58:39;;;;;;;;;1.33;0.00;;;;;33.91;19.90;101474.09;4959661;28;45487;-69
2022/07/01 10:01:09;;;;;;;;;1.00;1.00;;;;;34.20;19.56;101474.22;4976557;28;45571;-67
2022/07/01 10:03:38;;;;;;;;;0.00;0.00;;;;;34.65;19.54;101471.22;4978763;28;45864;-67
2022/07/01 10:06:06;;;;;;;;;1.00;0.00;;;;;34.86;18.91;101476.59;4978998;28;45486;-67
2022/07/01 10:08:34;;;;;;;;;1.67;0.00;;;;;34.40;19.85;101479.66;4979765;28;45187;-69
2022/07/01 10:11:24;;;;;;;;;0.00;0.00;;;;;33.75;20.41;101482.38;4979767;28;45482;-67
2022/07/01 10:13:53;;;;;;;;;1.00;1.00;;;;;32.83;20.96;101448.63;4977387;28;47558;-68
2022/07/01 10:16:20;;;;;;;;;1.00;1.00;;;;;32.22;21.13;101456.72;4994122;28;46675;-68
2022/07/01 10:18:46;;;;;;;;;0.00;0.00;;;;;31.83;21.95;101474.75;4978541;28;45388;-68
2022/07/01 10:21:39;;;;;;;;;0.00;0.00;;;;;30.99;22.57;101462.63;4978473;28;45553;-68
2022/07/01 10:24:20;;;;;;;;;0.00;0.00;;;;;30.24;23.73;101474.53;4977879;28;48097;-68
2022/07/01 10:26:59;;;;;;;;;0.00;0.00;;;;;29.85;24.29;101487.44;4979166;28;45328;-69
2022/07/01 10:29:38;;;;;;;;;4.67;2.00;;;;;29.32;24.29;101456.81;4977210;28;45322;-67
2022/07/01 10:32:24;;;;;;;;;0.67;0.67;;;;;28.66;25.34;101403.72;4976639;28;45625;-67
2022/07/01 10:34:49;;;;;;;;;1.00;1.00;;;;;28.78;25.35;101478.34;4969379;28;49003;-66
2022/07/01 10:37:17;;;;;;;;;1.00;1.00;;;;;28.53;26.34;101480.63;4978090;28;45480;-68
2022/07/01 10:40:02;;;;;;;;;0.00;0.00;;;;;28.21;25.72;101449.34;4978359;28;45256;-68
2022/07/01 10:42:55;;;;;;;;;1.00;0.00;;;;;27.89;25.52;101447.09;4993639;28;45484;-68
2022/07/01 10:45:20;;;;;;;;;0.00;0.00;;;;;27.77;25.90;101474.44;4977866;28;47309;-67
2022/07/01 10:47:46;;;;;;;;;2.00;1.00;;;;;27.14;26.75;101411.53;4976481;28;45376;-66
2022/07/01 10:50:15;;;;;;;;;2.33;2.33;;;;;26.74;26.79;101373.16;4977882;28;45547;-67
2022/07/01 10:53:02;;;;;;;;;1.00;1.00;;;;;27.19;27.75;101466.22;4978003;28;45238;-68
2022/07/01 10:55:38;;;;;;;;;0.00;0.00;;;;;26.91;27.60;101467.72;4977333;28;46443;-67
2022/07/01 10:58:04;;;;;;;;;1.00;0.00;;;;;26.64;27.79;101431.84;4978135;28;45271;-67
2022/07/01 11:00:32;;;;;;;;;0.00;0.00;;;;;26.63;27.38;101451.16;4978295;28;45296;-68
2022/07/01 11:03:27;;;;;;;;;1.67;1.67;;;;;26.59;27.19;101474.50;4978050;28;45424;-67
2022/07/01 11:05:55;;;;;;;;;3.00;2.00;;;;;26.47;27.99;101481.84;4967914;28;48826;-68
2022/07/01 11:08:21;;;;;;;;;2.00;2.00;;;;;26.04;28.84;101437.28;4978169;28;45361;-67
2022/07/01 11:10:50;;;;;;;;;0.00;0.00;;;;;26.26;28.85;101486.69;4976955;28;45487;-68
2022/07/01 11:13:16;;;;;;;;;1.00;1.00;;;;;26.11;29.58;101488.97;4976867;28;45551;-67
2022/07/01 11:15:45;;;;;;;;;0.33;0.00;;;;;25.97;29.18;101473.84;4976848;28;48695;-67
2022/07/01 11:18:10;;;;;;;;;0.00;0.00;;;;;25.84;29.25;101491.19;4978201;28;45526;-68
2022/07/01 11:20:36;;;;;;;;;3.00;3.00;;;;;25.66;29.62;101475.63;4977964;28;45436;-67
2022/07/01 11:23:01;;;;;;;;;0.00;0.00;;;;;25.54;29.68;101482.88;4978310;28;45379;-68
2022/07/01 11:25:27;;;;;;;;;2.00;0.00;;;;;25.57;29.70;101487.88;4977676;28;45720;-68
2022/07/01 11:27:53;;;;;;;;;0.00;0.00;;;;;25.40;30.19;101470.44;4977784;28;45324;-66
2022/07/01 11:30:20;;;;;;;;;0.00;0.00;;;;;25.49;29.65;101485.44;4977968;28;45320;-67
2022/07/01 11:32:50;;;;;;;;;1.00;0.00;;;;;25.40;29.87;101479.44;4978048;28;45371;-67